Time;durP1;ratioP1;P1;durP2;ratioP2;P2;SDS_P1;SDS_P2;PMS_P1;PMS_P2;Temp;Humidity;BMP_temperature;BMP_pressure;BME280_temperature;BME280_humidity;BME280_pressure;Samples;Min_cycle;Max_cycle;Signal;HPM_P1;HPM_P2
2021/10/19 00:00:14;;;;;;;29.10;18.30;;;;;;;7.29;78.29;99498.84;5060019;28;20020;-70
2021/10/19 00:02:40;;;;;;;39.80;21.05;;;;;;;7.28;78.12;99497.19;5081482;28;20024;-70
2021/10/19 00:05:07;;;;;;;38.45;21.92;;;;;;;7.29;77.81;99501.56;5084858;28;20030;-71
2021/10/19 00:07:32;;;;;;;39.22;21.75;;;;;;;7.27;77.97;99501.84;5083795;28;20049;-70
2021/10/19 00:09:58;;;;;;;38.17;21.10;;;;;;;7.26;78.13;99502.91;5079231;28;20055;-70
2021/10/19 00:12:23;;;;;;;36.88;19.38;;;;;;;7.24;78.00;99498.75;5077240;28;20031;-71
2021/10/19 00:14:49;;;;;;;37.67;21.35;;;;;;;7.22;78.00;99496.28;5076016;28;20016;-69
2021/10/19 00:17:15;;;;;;;31.92;19.73;;;;;;;7.24;77.86;99504.22;5083284;28;20025;-70
2021/10/19 00:19:40;;;;;;;39.05;21.70;;;;;;;7.26;77.73;99502.91;5062323;28;20052;-71
2021/10/19 00:22:06;;;;;;;42.13;23.40;;;;;;;7.28;77.74;99514.41;5083323;28;20098;-70
2021/10/19 00:24:31;;;;;;;40.53;23.35;;;;;;;7.33;77.97;99505.47;5085807;28;20579;-70
2021/10/19 00:26:57;;;;;;;42.63;24.08;;;;;;;7.35;77.74;99499.72;5083066;28;20563;-71
2021/10/19 00:29:22;;;;;;;38.08;22.60;;;;;;;7.36;78.00;99504.97;5080801;28;20032;-70
2021/10/19 00:31:48;;;;;;;38.40;22.50;;;;;;;7.34;77.29;99509.00;5077511;28;20420;-70
2021/10/19 00:34:13;;;;;;;40.08;22.25;;;;;;;7.34;77.72;99500.81;5077785;28;20017;-70
2021/10/19 00:36:39;;;;;;;32.20;20.13;;;;;;;7.37;77.93;99503.88;5080689;28;20039;-69
2021/10/19 00:39:04;;;;;;;37.15;23.15;;;;;;;7.35;77.56;99492.38;5077277;28;20027;-69
2021/10/19 00:41:29;;;;;;;37.35;22.85;;;;;;;7.36;77.70;99493.19;5083882;28;20120;-70
2021/10/19 00:43:55;;;;;;;34.40;21.52;;;;;;;7.39;77.93;99488.09;5083708;28;20024;-70
2021/10/19 00:46:21;;;;;;;38.05;21.73;;;;;;;7.38;77.72;99483.72;5086586;28;20031;-70
2021/10/19 00:48:47;;;;;;;38.50;22.38;;;;;;;7.40;77.35;99486.16;5089157;28;20103;-70
2021/10/19 00:51:17;;;;;;;35.75;21.63;;;;;;;7.42;77.05;99492.22;5089448;28;20017;-69
2021/10/19 00:53:43;;;;;;;35.90;21.58;;;;;;;7.41;77.61;99487.81;5077633;28;20051;-70
2021/10/19 00:56:10;;;;;;;36.97;21.73;;;;;;;7.39;77.59;99482.63;5084437;28;20119;-69
2021/10/19 00:58:40;;;;;;;35.65;21.27;;;;;;;7.38;77.33;99489.16;5085973;28;20257;-70
2021/10/19 01:01:06;;;;;;;36.20;20.35;;;;;;;7.34;77.61;99489.91;5083260;28;20023;-70
2021/10/19 01:03:31;;;;;;;31.38;19.80;;;;;;;7.28;77.48;99484.38;5084386;28;20387;-70
2021/10/19 01:05:59;;;;;;;34.78;19.92;;;;;;;7.28;77.59;99489.84;5084970;28;20028;-69
2021/10/19 01:08:25;;;;;;;31.70;18.17;;;;;;;7.25;77.42;99487.59;5085995;28;20054;-70
2021/10/19 01:10:51;;;;;;;32.72;19.23;;;;;;;7.25;77.38;99478.56;5088648;28;20032;-70
2021/10/19 01:13:17;;;;;;;33.50;18.88;;;;;;;7.23;77.29;99475.28;5093923;28;20031;-70
2021/10/19 01:15:45;;;;;;;30.95;19.58;;;;;;;7.20;77.41;99473.03;5092372;28;20020;-70
2021/10/19 01:18:12;;;;;;;33.17;19.55;;;;;;;7.17;77.44;99471.66;5096239;28;20035;-70
2021/10/19 01:20:38;;;;;;;32.40;18.15;;;;;;;7.13;78.07;99462.31;5079275;28;20026;-69
2021/10/19 01:23:04;;;;;;;28.27;16.50;;;;;;;7.11;78.06;99467.19;5075407;28;20021;-70
2021/10/19 01:25:32;;;;;;;26.73;15.93;;;;;;;7.08;77.93;99456.75;5086916;28;20391;-69
2021/10/19 01:27:59;;;;;;;28.70;15.85;;;;;;;7.07;77.96;99461.41;5087209;28;20024;-69
2021/10/19 01:30:25;;;;;;;32.25;17.38;;;;;;;7.06;77.75;99454.31;5090420;28;20073;-71
2021/10/19 01:32:51;;;;;;;29.33;17.45;;;;;;;7.07;77.98;99449.66;5085726;28;20458;-70
2021/10/19 01:35:17;;;;;;;28.55;16.67;;;;;;;7.08;78.23;99445.84;5086458;28;20032;-70
2021/10/19 01:37:43;;;;;;;27.23;16.13;;;;;;;7.07;78.27;99439.59;5083148;28;20020;-69
2021/10/19 01:40:11;;;;;;;30.73;18.88;;;;;;;7.07;78.17;99445.03;5081667;28;20023;-69
2021/10/19 01:42:37;;;;;;;33.47;18.50;;;;;;;7.10;78.04;99439.09;5083175;28;20031;-69
2021/10/19 01:45:03;;;;;;;31.38;18.05;;;;;;;7.12;77.83;99431.47;5086558;28;20020;-70
2021/10/19 01:47:28;;;;;;;31.77;18.42;;;;;;;7.09;77.66;99423.78;5085902;28;20114;-69
2021/10/19 01:49:54;;;;;;;34.75;20.60;;;;;;;7.09;78.19;99429.25;5080295;28;20099;-69
2021/10/19 01:52:20;;;;;;;30.27;19.25;;;;;;;7.09;78.04;99426.53;5082973;28;20024;-70
2021/10/19 01:54:45;;;;;;;35.08;18.70;;;;;;;7.08;77.82;99424.88;5079913;28;20051;-69
2021/10/19 01:57:10;;;;;;;31.17;16.67;;;;;;;7.05;78.38;99429.97;5066484;28;20033;-70
2021/10/19 01:59:36;;;;;;;28.63;16.65;;;;;;;7.02;77.98;99430.47;5084585;28;20050;-69
2021/10/19 02:02:01;;;;;;;26.27;16.60;;;;;;;6.99;77.80;99431.81;5084038;28;20016;-69
2021/10/19 02:04:27;;;;;;;25.45;15.80;;;;;;;6.94;78.13;99427.09;5081757;28;20668;-69
2021/10/19 02:06:52;;;;;;;29.38;16.13;;;;;;;6.92;78.28;99429.25;5077989;28;20016;-68
2021/10/19 02:09:19;;;;;;;32.42;19.35;;;;;;;6.89;78.03;99421.56;5075422;28;20048;-69
2021/10/19 02:11:44;;;;;;;27.88;15.38;;;;;;;6.90;77.93;99425.97;5075556;28;20036;-69
2021/10/19 02:14:09;;;;;;;31.33;18.48;;;;;;;6.89;78.47;99421.56;5082238;28;20380;-69
2021/10/19 02:16:35;;;;;;;23.52;15.38;;;;;;;6.88;78.14;99421.81;5084648;28;20024;-70
2021/10/19 02:19:00;;;;;;;30.70;18.10;;;;;;;6.88;78.28;99419.06;5091126;28;20043;-68
2021/10/19 02:21:26;;;;;;;28.70;16.45;;;;;;;6.90;78.22;99416.94;5084933;28;20764;-70
2021/10/19 02:23:51;;;;;;;25.33;14.52;;;;;;;6.87;78.25;99426.44;5081933;28;20484;-70
2021/10/19 02:26:16;;;;;;;28.50;17.40;;;;;;;6.83;77.95;99417.91;5065955;28;20106;-70
2021/10/19 02:28:42;;;;;;;25.67;16.30;;;;;;;6.82;78.16;99423.63;5083319;28;20035;-69
2021/10/19 02:31:07;;;;;;;27.30;17.27;;;;;;;6.76;78.30;99422.69;5080781;28;20097;-69
2021/10/19 02:33:33;;;;;;;27.40;16.60;;;;;;;6.73;78.49;99433.28;5086959;28;20111;-70
2021/10/19 02:35:58;;;;;;;28.13;16.75;;;;;;;6.68;77.99;99423.13;5066715;28;20032;-70
2021/10/19 02:38:24;;;;;;;27.15;16.52;;;;;;;6.65;78.37;99421.72;5085362;28;20024;-69
2021/10/19 02:40:50;;;;;;;29.02;16.83;;;;;;;6.64;78.70;99413.78;5080925;28;20074;-69
2021/10/19 02:43:15;;;;;;;30.83;17.85;;;;;;;6.62;78.47;99419.47;5086236;28;20016;-70
2021/10/19 02:45:40;;;;;;;29.02;17.65;;;;;;;6.63;78.39;99412.16;5084071;28;20028;-69
2021/10/19 02:48:06;;;;;;;30.42;17.42;;;;;;;6.63;78.43;99412.16;5091060;28;20020;-70
2021/10/19 02:50:32;;;;;;;27.40;17.13;;;;;;;6.62;78.61;99407.75;5081453;28;20050;-70
2021/10/19 02:52:57;;;;;;;31.40;17.70;;;;;;;6.63;78.32;99401.25;5086308;28;20023;-69
2021/10/19 02:55:23;;;;;;;24.95;15.68;;;;;;;6.60;78.89;99408.00;5087822;28;20020;-70
2021/10/19 02:57:48;;;;;;;32.13;18.67;;;;;;;6.52;78.62;99397.53;5087506;28;20107;-69
2021/10/19 03:00:14;;;;;;;30.95;17.90;;;;;;;6.50;78.53;99403.19;5082420;28;20020;-69
2021/10/19 03:02:40;;;;;;;28.65;17.55;;;;;;;6.47;78.56;99391.97;5086099;28;20090;-69
2021/10/19 03:05:06;;;;;;;27.23;16.95;;;;;;;6.47;78.67;99397.44;5092130;28;20020;-69
2021/10/19 03:07:31;;;;;;;29.20;17.45;;;;;;;6.47;78.71;99405.59;5085974;28;20020;-69
2021/10/19 03:09:57;;;;;;;29.65;16.73;;;;;;;6.46;78.51;99402.03;5083669;28;20326;-69
2021/10/19 03:12:22;;;;;;;32.17;18.95;;;;;;;6.43;78.76;99407.16;5084685;28;20516;-69
2021/10/19 03:14:47;;;;;;;28.60;17.48;;;;;;;6.40;78.79;99408.47;5081789;28;20024;-70
2021/10/19 03:17:13;;;;;;;30.13;16.80;;;;;;;6.37;78.44;99417.97;5082256;28;20019;-70
2021/10/19 03:19:38;;;;;;;32.47;18.77;;;;;;;6.34;78.47;99412.16;5091173;28;20028;-70
2021/10/19 03:22:04;;;;;;;30.77;17.92;;;;;;;6.30;78.77;99420.00;5091296;28;20392;-70
2021/10/19 03:24:29;;;;;;;29.02;16.08;;;;;;;6.30;79.00;99411.84;5091266;28;20047;-70
2021/10/19 03:26:55;;;;;;;32.95;19.70;;;;;;;6.28;78.82;99411.25;5090199;28;20040;-70
2021/10/19 03:29:21;;;;;;;29.77;16.35;;;;;;;6.27;78.70;99409.59;5085659;28;20472;-70
2021/10/19 03:31:47;;;;;;;30.35;17.20;;;;;;;6.27;78.98;99408.78;5079600;28;20024;-71
2021/10/19 03:34:13;;;;;;;29.73;17.95;;;;;;;6.28;78.64;99405.00;5085166;28;20028;-70
2021/10/19 03:36:38;;;;;;;26.08;15.30;;;;;;;6.30;78.97;99408.31;5085365;28;20388;-70
2021/10/19 03:39:04;;;;;;;27.48;16.05;;;;;;;6.31;79.23;99412.69;5090267;28;20063;-70
2021/10/19 03:41:29;;;;;;;30.67;16.92;;;;;;;6.30;79.01;99420.00;5084960;28;20064;-70
2021/10/19 03:43:55;;;;;;;31.23;17.60;;;;;;;6.31;78.93;99412.69;5079084;28;20048;-70
2021/10/19 03:46:20;;;;;;;30.40;17.92;;;;;;;6.31;78.90;99415.41;5083288;28;20020;-70
2021/10/19 03:48:45;;;;;;;31.13;17.35;;;;;;;6.30;78.69;99409.13;5080797;28;20036;-71
2021/10/19 03:51:11;;;;;;;36.35;18.20;;;;;;;6.31;78.69;99416.22;5064721;28;20043;-69
2021/10/19 03:53:37;;;;;;;27.83;16.67;;;;;;;6.30;78.86;99413.75;5084518;28;20020;-71
2021/10/19 03:56:04;;;;;;;33.03;18.55;;;;;;;6.27;78.94;99411.50;5083203;28;20349;-70
2021/10/19 03:58:30;;;;;;;36.47;20.60;;;;;;;6.24;78.88;99410.94;5081657;28;20038;-70
2021/10/19 04:00:55;;;;;;;32.33;19.05;;;;;;;6.23;79.02;99414.72;5057789;28;20047;-70
2021/10/19 04:03:21;;;;;;;33.35;18.83;;;;;;;6.24;79.39;99407.38;5079122;28;20028;-70
2021/10/19 04:05:46;;;;;;;28.33;15.85;;;;;;;6.26;79.15;99407.94;5080532;28;20035;-69
2021/10/19 04:08:12;;;;;;;36.35;19.70;;;;;;;6.27;79.27;99400.63;5083603;28;20120;-70
2021/10/19 04:10:37;;;;;;;32.10;16.90;;;;;;;6.25;79.27;99415.31;5083504;28;20024;-69
2021/10/19 04:13:03;;;;;;;31.15;16.98;;;;;;;6.27;79.26;99408.78;5080200;28;20491;-70
2021/10/19 04:15:28;;;;;;;28.85;17.27;;;;;;;6.28;79.33;99411.25;5089013;28;20134;-69
2021/10/19 04:17:54;;;;;;;29.88;16.73;;;;;;;6.28;79.11;99415.91;5091185;28;20026;-70
2021/10/19 04:20:19;;;;;;;36.22;19.25;;;;;;;6.29;79.21;99409.38;5083052;28;20024;-69
2021/10/19 04:22:44;;;;;;;27.45;16.33;;;;;;;6.31;78.74;99415.41;5084311;28;20031;-70
2021/10/19 04:25:10;;;;;;;24.17;14.23;;;;;;;6.32;79.42;99412.41;5080114;28;20111;-70
2021/10/19 04:27:35;;;;;;;28.13;15.70;;;;;;;6.33;79.47;99411.34;5084696;28;20052;-70
2021/10/19 04:30:01;;;;;;;32.20;17.98;;;;;;;6.33;79.44;99413.25;5085416;28;20034;-70
2021/10/19 04:32:26;;;;;;;30.70;17.63;;;;;;;6.33;79.36;99413.25;5083683;28;20099;-70
2021/10/19 04:34:51;;;;;;;41.08;22.25;;;;;;;6.34;79.46;99413.00;5080527;28;20020;-69
2021/10/19 04:37:17;;;;;;;39.28;23.60;;;;;;;6.35;79.17;99411.94;5085293;28;20050;-70
2021/10/19 04:39:43;;;;;;;33.72;22.85;;;;;;;6.36;79.23;99424.50;5086160;28;20043;-70
2021/10/19 04:42:08;;;;;;;31.63;20.38;;;;;;;6.37;79.40;99417.97;5090037;28;20090;-70
2021/10/19 04:44:33;;;;;;;34.10;20.10;;;;;;;6.37;79.22;99408.94;5081538;28;20495;-70
2021/10/19 04:46:59;;;;;;;31.23;18.75;;;;;;;6.37;79.34;99417.13;5083235;28;20020;-69
2021/10/19 04:49:25;;;;;;;32.65;19.33;;;;;;;6.39;79.43;99424.00;5084187;28;20044;-70
2021/10/19 04:51:50;;;;;;;35.58;22.27;;;;;;;6.39;79.03;99424.00;5085485;28;20020;-71
2021/10/19 04:54:16;;;;;;;29.90;19.85;;;;;;;6.40;78.98;99422.94;5087430;28;20028;-71
2021/10/19 04:56:41;;;;;;;32.88;20.50;;;;;;;6.40;79.35;99422.09;5087640;28;20032;-70
2021/10/19 04:59:06;;;;;;;36.75;22.17;;;;;;;6.39;78.80;99421.28;5089803;28;20518;-70
2021/10/19 05:01:32;;;;;;;33.45;20.92;;;;;;;6.40;78.94;99430.25;5091052;28;20028;-70
2021/10/19 05:03:57;;;;;;;36.85;22.52;;;;;;;6.42;79.10;99428.13;5089921;28;20043;-69
2021/10/19 05:06:24;;;;;;;34.45;20.15;;;;;;;6.44;78.67;99430.63;5084444;28;20016;-69
2021/10/19 05:08:50;;;;;;;33.67;20.95;;;;;;;6.45;78.92;99426.81;5062537;28;20020;-69
2021/10/19 05:11:15;;;;;;;36.97;21.58;;;;;;;6.46;78.69;99426.56;5082927;28;20020;-69
2021/10/19 05:13:40;;;;;;;31.90;19.23;;;;;;;6.49;78.67;99433.44;5087304;28;20258;-70
2021/10/19 05:16:06;;;;;;;34.38;21.08;;;;;;;6.50;78.86;99432.38;5087818;28;20020;-70
2021/10/19 05:18:32;;;;;;;34.60;20.52;;;;;;;6.48;78.61;99431.78;5072315;28;20074;-70
2021/10/19 05:20:58;;;;;;;34.15;20.20;;;;;;;6.49;78.77;99433.44;5091286;28;20096;-70
2021/10/19 05:23:24;;;;;;;32.67;19.98;;;;;;;6.47;78.25;99424.69;5086345;28;20031;-69
2021/10/19 05:25:49;;;;;;;38.70;22.23;;;;;;;6.47;78.49;99421.97;5079366;28;20040;-70
2021/10/19 05:28:15;;;;;;;30.70;19.27;;;;;;;6.51;78.46;99425.84;5082283;28;20409;-70
2021/10/19 05:30:40;;;;;;;31.98;19.52;;;;;;;6.53;78.51;99423.69;5065133;28;20109;-70
2021/10/19 05:33:06;;;;;;;29.27;17.85;;;;;;;6.55;78.52;99432.44;5088068;28;20494;-71
2021/10/19 05:35:32;;;;;;;29.65;18.45;;;;;;;6.57;78.38;99419.38;5088375;28;20032;-70
2021/10/19 05:37:59;;;;;;;33.42;18.63;;;;;;;6.62;78.44;99422.19;5089945;28;20028;-70
2021/10/19 05:40:25;;;;;;;28.38;18.45;;;;;;;6.66;78.38;99426.09;5078422;28;20538;-70
2021/10/19 05:42:51;;;;;;;34.35;19.20;;;;;;;6.72;78.39;99423.47;5076824;28;20477;-70
2021/10/19 05:45:17;;;;;;;34.60;18.70;;;;;;;6.78;78.08;99419.75;5080602;28;20063;-70
2021/10/19 05:47:45;;;;;;;26.35;17.63;;;;;;;6.83;78.25;99426.09;5084048;28;20034;-71
2021/10/19 05:50:13;;;;;;;34.55;19.85;;;;;;;6.89;77.95;99427.03;5085531;28;20024;-70
2021/10/19 05:52:40;;;;;;;35.53;20.52;;;;;;;6.94;78.11;99429.00;5093006;28;20030;-70
2021/10/19 05:55:06;;;;;;;33.97;20.58;;;;;;;7.00;78.11;99428.00;5090605;28;20027;-69
2021/10/19 05:57:31;;;;;;;31.33;19.42;;;;;;;7.06;77.86;99445.28;5089177;28;20031;-70
2021/10/19 05:59:57;;;;;;;36.60;20.83;;;;;;;7.10;78.39;99451.88;5084474;28;20107;-69
2021/10/19 06:02:22;;;;;;;36.28;22.05;;;;;;;7.13;77.90;99446.75;5080421;28;20059;-69
2021/10/19 06:04:47;;;;;;;37.15;23.13;;;;;;;7.18;78.09;99442.44;5086095;28;20109;-69
2021/10/19 06:07:13;;;;;;;31.75;18.90;;;;;;;7.24;77.72;99453.22;5085558;28;20032;-70
2021/10/19 06:09:38;;;;;;;32.35;19.98;;;;;;;7.27;78.19;99446.41;5089392;28;20028;-70
2021/10/19 06:12:05;;;;;;;34.92;19.85;;;;;;;7.29;77.67;99447.00;5087449;28;20055;-70
2021/10/19 06:14:30;;;;;;;34.78;21.17;;;;;;;7.33;77.72;99450.06;5087777;28;20444;-70
2021/10/19 06:16:56;;;;;;;32.83;19.45;;;;;;;7.37;77.73;99443.84;5089817;28;20047;-70
2021/10/19 06:19:22;;;;;;;28.80;17.00;;;;;;;7.39;77.43;99438.13;5085121;28;20521;-80
2021/10/19 06:21:48;;;;;;;32.47;21.50;;;;;;;7.40;77.89;99437.88;5084839;28;20024;-78
2021/10/19 06:24:14;;;;;;;33.38;19.65;;;;;;;7.47;78.05;99439.63;5086127;28;20827;-80
2021/10/19 06:26:40;;;;;;;36.40;20.95;;;;;;;7.52;77.59;99429.59;5089130;28;20048;-77
2021/10/19 06:29:08;;;;;;;32.17;19.10;;;;;;;7.57;77.44;99424.19;5083508;28;20546;-81
2021/10/19 06:31:34;;;;;;;37.03;20.40;;;;;;;7.62;77.77;99428.06;5083462;28;20137;-77
2021/10/19 06:34:00;;;;;;;26.63;16.90;;;;;;;7.65;77.39;99427.56;5086731;28;20081;-75
2021/10/19 06:36:26;;;;;;;31.45;17.70;;;;;;;7.69;77.19;99439.63;5090450;28;20024;-77
2021/10/19 06:38:52;;;;;;;32.85;18.70;;;;;;;7.70;76.83;99431.19;5084838;28;20039;-76
2021/10/19 06:41:17;;;;;;;33.30;17.42;;;;;;;7.73;76.57;99427.13;5087432;28;20028;-76
2021/10/19 06:43:43;;;;;;;28.70;16.67;;;;;;;7.80;76.86;99426.94;5084412;28;20085;-77
2021/10/19 06:46:09;;;;;;;25.75;16.13;;;;;;;7.84;76.75;99422.63;5079583;28;20031;-77
2021/10/19 06:48:34;;;;;;;28.65;16.48;;;;;;;7.86;76.35;99424.00;5080003;28;20060;-77
2021/10/19 06:50:59;;;;;;;30.58;16.77;;;;;;;7.92;76.79;99410.41;5067174;28;20034;-76
2021/10/19 06:53:25;;;;;;;26.05;15.05;;;;;;;7.97;76.79;99418.66;5086297;28;20032;-77
2021/10/19 06:55:50;;;;;;;31.20;16.33;;;;;;;8.01;76.57;99426.09;5088555;28;20024;-77
2021/10/19 06:58:17;;;;;;;27.23;17.02;;;;;;;8.05;76.25;99413.56;5092337;28;20081;-77
2021/10/19 07:00:42;;;;;;;28.17;16.00;;;;;;;8.11;76.37;99414.47;5075958;28;20031;-78
2021/10/19 07:03:08;;;;;;;25.85;14.10;;;;;;;8.15;76.35;99410.13;5076731;28;20025;-77
2021/10/19 07:05:34;;;;;;;24.33;14.57;;;;;;;8.21;76.18;99416.47;5079640;28;20427;-78
2021/10/19 07:08:00;;;;;;;23.00;13.02;;;;;;;8.23;75.85;99410.75;5066658;28;20016;-77
2021/10/19 07:10:25;;;;;;;21.30;12.13;;;;;;;8.27;75.58;99417.34;5085846;28;20473;-77
2021/10/19 07:12:51;;;;;;;26.90;13.48;;;;;;;8.31;75.33;99413.88;5071377;28;20034;-77
2021/10/19 07:15:16;;;;;;;23.20;13.35;;;;;;;8.37;75.06;99414.72;5091949;28;20581;-76
2021/10/19 07:17:42;;;;;;;22.63;13.50;;;;;;;8.42;75.49;99424.88;5074985;28;20065;-76
2021/10/19 07:20:10;;;;;;;21.38;12.77;;;;;;;8.47;75.32;99427.66;5076636;28;20027;-77
2021/10/19 07:22:36;;;;;;;23.60;13.30;;;;;;;8.53;75.06;99440.34;5079762;28;20463;-75
2021/10/19 07:25:04;;;;;;;23.33;14.00;;;;;;;8.60;75.45;99446.44;5092048;28;20043;-77
2021/10/19 07:27:31;;;;;;;23.55;14.35;;;;;;;8.69;74.57;99445.97;5086872;28;20049;-77
2021/10/19 07:29:57;;;;;;;26.38;15.15;;;;;;;8.76;75.06;99441.13;5075496;28;20177;-76
2021/10/19 07:32:22;;;;;;;20.95;12.48;;;;;;;8.86;74.32;99432.97;5106135;28;20126;-77
2021/10/19 07:34:47;;;;;;;23.98;13.20;;;;;;;8.96;74.08;99434.16;5106266;28;20024;-77
2021/10/19 07:37:15;;;;;;;20.88;11.88;;;;;;;9.03;73.48;99430.09;5105729;28;20023;-76
2021/10/19 07:39:40;;;;;;;23.98;12.25;;;;;;;9.11;74.60;99427.97;5111868;28;20388;-77
2021/10/19 07:42:06;;;;;;;21.23;11.10;;;;;;;9.18;72.54;99429.38;5111790;28;20011;-78
2021/10/19 07:44:31;;;;;;;19.38;11.18;;;;;;;9.26;73.68;99432.72;5111821;28;20020;-76
2021/10/19 07:46:56;;;;;;;21.45;11.13;;;;;;;9.35;73.22;99436.63;5107613;28;20020;-76
2021/10/19 07:49:22;;;;;;;20.05;10.18;;;;;;;9.39;71.66;99419.38;5091380;28;20054;-78
2021/10/19 07:51:47;;;;;;;18.58;10.88;;;;;;;9.48;72.67;99416.16;5073004;28;20024;-77
2021/10/19 07:54:13;;;;;;;18.52;10.75;;;;;;;9.56;72.53;99414.84;5090882;28;20027;-81
2021/10/19 07:56:39;;;;;;;19.95;11.30;;;;;;;9.63;71.95;99416.25;5090287;28;20468;-82
2021/10/19 07:59:05;;;;;;;22.02;11.65;;;;;;;9.71;72.15;99411.34;5101017;28;20020;-78
2021/10/19 08:01:32;;;;;;;19.98;9.82;;;;;;;9.79;72.37;99424.50;5091141;28;20036;-82
2021/10/19 08:03:57;;;;;;;17.75;10.07;;;;;;;9.88;71.72;99436.63;5088289;28;20499;-79
2021/10/19 08:06:24;;;;;;;19.05;10.38;;;;;;;9.95;71.93;99437.19;5089332;28;20024;-80
2021/10/19 08:08:49;;;;;;;14.05;9.40;;;;;;;10.06;72.15;99437.25;5089126;28;20008;-80
2021/10/19 08:11:14;;;;;;;15.32;10.45;;;;;;;10.12;71.26;99434.25;5091485;28;20042;-79
2021/10/19 08:13:40;;;;;;;17.23;9.98;;;;;;;10.22;70.67;99436.19;5087973;28;20036;-81
2021/10/19 08:16:05;;;;;;;20.00;10.48;;;;;;;10.28;70.58;99428.81;5088792;28;20016;-80
2021/10/19 08:18:31;;;;;;;21.00;10.65;;;;;;;10.36;71.06;99439.25;5097414;28;20038;-80
2021/10/19 08:20:56;;;;;;;19.85;10.02;;;;;;;10.46;70.75;99434.91;5088152;28;20031;-79
2021/10/19 08:23:22;;;;;;;15.00;9.65;;;;;;;10.57;69.93;99442.91;5082133;28;20083;-79
2021/10/19 08:25:47;;;;;;;15.38;8.57;;;;;;;10.67;70.36;99431.09;5104702;28;20048;-77
2021/10/19 08:28:24;;;;;;;14.05;8.52;;;;;;;10.78;70.00;99442.09;5091659;28;20511;-78
2021/10/19 08:30:52;;;;;;;14.18;7.40;;;;;;;10.91;69.49;99432.47;5097287;28;20114;-78
2021/10/19 08:33:17;;;;;;;12.00;7.70;;;;;;;11.04;68.76;99420.13;5084834;28;20024;-78
2021/10/19 08:35:43;;;;;;;10.10;6.30;;;;;;;11.18;68.98;99426.72;5085006;28;20032;-83
2021/10/19 08:38:12;;;;;;;10.15;6.55;;;;;;;11.30;68.06;99423.66;5089539;28;20020;-79
2021/10/19 08:40:39;;;;;;;15.30;7.18;;;;;;;11.41;68.30;99427.22;5083754;28;20036;-80
2021/10/19 08:43:04;;;;;;;14.23;8.23;;;;;;;11.50;68.42;99432.94;5068137;28;20468;-80
2021/10/19 08:45:30;;;;;;;13.40;6.03;;;;;;;11.55;67.56;99425.53;5088988;28;20028;-82
2021/10/19 08:47:56;;;;;;;9.98;5.32;;;;;;;11.56;67.20;99424.44;5098419;28;20059;-80
2021/10/19 08:50:24;;;;;;;10.13;5.55;;;;;;;11.61;65.56;99416.16;5094954;28;20064;-80
2021/10/19 08:52:50;;;;;;;14.60;6.30;;;;;;;11.64;66.24;99419.44;5107674;28;20476;-80
2021/10/19 08:55:17;;;;;;;8.18;5.22;;;;;;;11.70;65.89;99421.06;5093795;28;20047;-80
2021/10/19 08:57:42;;;;;;;9.13;5.07;;;;;;;11.74;64.71;99422.16;5097565;28;20074;-82
2021/10/19 09:00:09;;;;;;;11.38;5.63;;;;;;;11.79;63.71;99415.84;5113926;28;20106;-80
2021/10/19 09:02:40;;;;;;;12.00;5.45;;;;;;;11.83;64.72;99415.00;5099530;28;20032;-80
2021/10/19 09:05:13;;;;;;;11.55;5.35;;;;;;;11.91;64.56;99400.66;5113730;28;20103;-79
2021/10/19 09:07:39;;;;;;;13.05;5.90;;;;;;;12.03;65.76;99399.53;5113087;28;20019;-81
2021/10/19 09:10:15;;;;;;;11.05;5.82;;;;;;;12.16;65.26;99390.66;5112888;28;20072;-78
2021/10/19 09:12:51;;;;;;;9.68;5.47;;;;;;;12.29;65.26;99391.94;5071766;28;20535;-81
2021/10/19 09:15:20;;;;;;;17.17;5.78;;;;;;;12.43;65.09;99391.31;5093430;28;20119;-80
2021/10/19 09:17:45;;;;;;;12.40;6.20;;;;;;;12.54;64.46;99394.81;5104357;28;20031;-82
2021/10/19 09:20:15;;;;;;;9.27;5.55;;;;;;;12.55;63.43;99389.03;5092511;28;20391;-80
2021/10/19 09:23:01;;;;;;;9.40;5.03;;;;;;;12.51;63.04;99387.97;5100987;28;20028;-81
2021/10/19 09:25:52;;;;;;;11.07;6.07;;;;;;;12.39;63.30;99393.84;5086302;28;20027;-79
2021/10/19 09:28:35;;;;;;;9.30;6.22;;;;;;;12.31;62.78;99399.94;5092435;28;20039;-79
2021/10/19 09:31:01;;;;;;;10.43;6.63;;;;;;;12.24;63.05;99394.72;5096456;28;20034;-81
2021/10/19 09:33:26;;;;;;;12.55;6.68;;;;;;;12.19;63.02;99398.34;5095644;28;20024;-79
2021/10/19 09:35:55;;;;;;;9.95;5.57;;;;;;;12.13;63.38;99399.47;5097007;28;20103;-73
2021/10/19 09:38:21;;;;;;;12.73;7.15;;;;;;;12.11;63.48;99401.69;5070880;28;20024;-77
2021/10/19 09:40:50;;;;;;;11.43;6.97;;;;;;;12.12;63.06;99399.78;5104609;28;20034;-78
2021/10/19 09:43:19;;;;;;;12.80;6.80;;;;;;;12.16;62.47;99381.59;5097840;28;20470;-81
2021/10/19 09:45:46;;;;;;;12.27;6.67;;;;;;;12.18;62.69;99388.44;5071599;28;20035;-81
2021/10/19 09:48:15;;;;;;;12.55;6.60;;;;;;;12.23;63.04;99386.78;5094957;28;20080;-83
2021/10/19 09:50:41;;;;;;;9.15;5.80;;;;;;;12.23;62.80;99384.84;5078747;28;20032;-80
2021/10/19 09:53:09;;;;;;;14.15;7.72;;;;;;;12.22;63.00;99380.47;5075105;28;20619;-82
2021/10/19 09:55:36;;;;;;;14.82;7.90;;;;;;;12.27;63.21;99376.84;5100513;28;20030;-82
2021/10/19 09:58:03;;;;;;;12.88;7.32;;;;;;;12.33;63.73;99372.97;5094518;28;20365;-80
2021/10/19 10:00:32;;;;;;;14.48;8.13;;;;;;;12.40;62.60;99361.63;5097347;28;20472;-83
2021/10/19 10:03:03;;;;;;;14.55;7.43;;;;;;;12.42;63.09;99357.50;5088566;28;20055;-83
2021/10/19 10:05:30;;;;;;;12.52;7.22;;;;;;;12.45;63.02;99367.91;5087411;28;20032;-85
2021/10/19 10:07:56;;;;;;;11.63;7.15;;;;;;;12.47;63.78;99351.94;5091559;28;20077;-83
2021/10/19 10:10:23;;;;;;;10.90;7.50;;;;;;;12.56;63.61;99354.09;5100658;28;20400;-81
2021/10/19 10:13:02;;;;;;;11.60;6.35;;;;;;;12.68;62.63;99346.28;5090527;28;20024;-83
2021/10/19 10:15:33;;;;;;;11.47;6.03;;;;;;;12.79;62.44;99358.84;5092994;28;20062;-84
2021/10/19 10:18:04;;;;;;;13.00;6.03;;;;;;;12.92;62.71;99356.53;5073279;28;20281;-83
2021/10/19 10:20:36;;;;;;;9.88;5.82;;;;;;;13.05;61.19;99344.84;5096933;28;20027;-79
2021/10/19 10:23:23;;;;;;;7.93;5.10;;;;;;;13.14;61.16;99339.50;5098347;28;20039;-82
2021/10/19 10:25:51;;;;;;;8.85;5.25;;;;;;;13.22;59.56;99335.31;5088344;28;20048;-84
2021/10/19 10:28:25;;;;;;;10.30;5.32;;;;;;;13.24;60.57;99327.56;5087085;28;20059;-85
2021/10/19 10:30:50;;;;;;;8.18;4.90;;;;;;;13.28;60.29;99334.13;5086638;28;20054;-86
2021/10/19 10:33:16;;;;;;;7.15;5.10;;;;;;;13.29;60.87;99327.50;5099370;28;20484;-85
2021/10/19 10:35:47;;;;;;;8.40;5.72;;;;;;;13.32;60.19;99326.91;5082472;28;20036;-72
2021/10/19 10:38:13;;;;;;;8.52;5.03;;;;;;;13.33;60.43;99328.56;5089670;28;20476;-71
2021/10/19 10:40:42;;;;;;;5.55;4.22;;;;;;;13.38;59.36;99334.00;5105505;28;20055;-71
2021/10/19 10:43:21;;;;;;;9.00;5.10;;;;;;;13.41;60.44;99335.41;5094585;28;20489;-77
2021/10/19 10:45:48;;;;;;;10.80;5.13;;;;;;;13.46;59.00;99329.81;5096370;28;20078;-70
2021/10/19 10:48:15;;;;;;;7.45;5.18;;;;;;;13.50;58.69;99332.81;5089329;28;20036;-71
2021/10/19 10:50:41;;;;;;;10.52;4.32;;;;;;;13.57;59.36;99337.94;5089393;28;20480;-71
2021/10/19 10:53:11;;;;;;;6.85;4.60;;;;;;;13.67;58.65;99332.31;5091112;28;20035;-70
2021/10/19 10:55:43;;;;;;;6.25;4.40;;;;;;;13.77;58.82;99323.09;5097877;28;20036;-69
2021/10/19 10:58:09;;;;;;;8.40;4.82;;;;;;;13.87;58.18;99325.72;5110654;28;20037;-69
2021/10/19 11:00:35;;;;;;;6.38;4.22;;;;;;;14.01;58.18;99316.72;5108537;28;20058;-69
2021/10/19 11:03:14;;;;;;;6.20;4.40;;;;;;;14.17;58.12;99323.63;5089224;28;20026;-74
2021/10/19 11:06:00;;;;;;;5.25;3.20;;;;;;;14.38;58.35;99317.81;5086702;28;20427;-69
2021/10/19 11:08:29;;;;;;;6.93;4.70;;;;;;;14.56;56.91;99302.31;5089064;28;20024;-69
2021/10/19 11:11:21;;;;;;;6.95;4.72;;;;;;;14.66;56.80;99309.59;5094309;28;20082;-67
2021/10/19 11:13:58;;;;;;;11.38;5.60;;;;;;;14.81;56.35;99306.63;5069395;28;20102;-68
2021/10/19 11:16:35;;;;;;;6.88;4.35;;;;;;;14.96;57.10;99305.50;5097771;28;20031;-68
2021/10/19 11:19:04;;;;;;;8.35;4.53;;;;;;;15.03;55.96;99305.94;5085111;28;20028;-69
2021/10/19 11:21:30;;;;;;;7.30;4.57;;;;;;;15.04;55.88;99298.44;5091522;28;20024;-69
2021/10/19 11:23:56;;;;;;;8.30;4.85;;;;;;;15.07;56.09;99297.03;5091341;28;20028;-68